sensor_id;sensor_type;location;lat;lon;timestamp;P1;durP1;ratioP1;P2;durP2;ratioP2
66342;SDS011;53144;51.524;5.080;2023-07-09T00:01:50;11.07;;;8.55;;
66342;SDS011;53144;51.524;5.080;2023-07-09T00:04:16;16.65;;;9.20;;
66342;SDS011;53144;51.524;5.080;2023-07-09T00:06:43;12.77;;;8.38;;
66342;SDS011;53144;51.524;5.080;2023-07-09T00:09:13;17.50;;;8.82;;
66342;SDS011;53144;51.524;5.080;2023-07-09T00:11:41;14.95;;;9.45;;
66342;SDS011;53144;51.524;5.080;2023-07-09T00:14:08;17.58;;;9.25;;
66342;SDS011;53144;51.524;5.080;2023-07-09T00:16:34;13.82;;;9.13;;
66342;SDS011;53144;51.524;5.080;2023-07-09T00:19:02;16.02;;;9.23;;
66342;SDS011;53144;51.524;5.080;2023-07-09T00:21:28;19.42;;;9.82;;
66342;SDS011;53144;51.524;5.080;2023-07-09T00:23:59;14.75;;;9.45;;
66342;SDS011;53144;51.524;5.080;2023-07-09T00:26:29;13.57;;;9.27;;
66342;SDS011;53144;51.524;5.080;2023-07-09T00:28:57;10.98;;;9.15;;
66342;SDS011;53144;51.524;5.080;2023-07-09T00:31:23;14.02;;;9.18;;
66342;SDS011;53144;51.524;5.080;2023-07-09T00:33:48;13.98;;;9.00;;
66342;SDS011;53144;51.524;5.080;2023-07-09T00:36:26;12.02;;;8.40;;
66342;SDS011;53144;51.524;5.080;2023-07-09T00:38:54;16.10;;;9.20;;
66342;SDS011;53144;51.524;5.080;2023-07-09T00:41:21;20.30;;;9.40;;
66342;SDS011;53144;51.524;5.080;2023-07-09T00:43:48;23.27;;;9.43;;
66342;SDS011;53144;51.524;5.080;2023-07-09T00:48:51;14.87;;;9.97;;
66342;SDS011;53144;51.524;5.080;2023-07-09T00:51:19;16.30;;;9.95;;
66342;SDS011;53144;51.524;5.080;2023-07-09T00:53:46;19.65;;;10.00;;
66342;SDS011;53144;51.524;5.080;2023-07-09T00:56:18;18.83;;;9.40;;
66342;SDS011;53144;51.524;5.080;2023-07-09T00:58:52;20.30;;;9.52;;
66342;SDS011;53144;51.524;5.080;2023-07-09T01:01:20;18.85;;;9.50;;
66342;SDS011;53144;51.524;5.080;2023-07-09T01:03:51;19.88;;;9.75;;
66342;SDS011;53144;51.524;5.080;2023-07-09T01:06:27;15.43;;;9.60;;
66342;SDS011;53144;51.524;5.080;2023-07-09T01:09:06;16.30;;;9.43;;
66342;SDS011;53144;51.524;5.080;2023-07-09T01:11:32;12.98;;;9.13;;
66342;SDS011;53144;51.524;5.080;2023-07-09T01:13:59;14.65;;;9.45;;
66342;SDS011;53144;51.524;5.080;2023-07-09T01:16:28;17.38;;;10.00;;
66342;SDS011;53144;51.524;5.080;2023-07-09T01:18:56;19.30;;;9.38;;
66342;SDS011;53144;51.524;5.080;2023-07-09T01:21:22;26.73;;;10.77;;
66342;SDS011;53144;51.524;5.080;2023-07-09T01:23:48;15.75;;;9.70;;
66342;SDS011;53144;51.524;5.080;2023-07-09T01:26:16;28.85;;;11.52;;
66342;SDS011;53144;51.524;5.080;2023-07-09T01:28:45;25.27;;;11.98;;
66342;SDS011;53144;51.524;5.080;2023-07-09T01:31:11;44.42;;;15.07;;
66342;SDS011;53144;51.524;5.080;2023-07-09T01:33:38;51.00;;;15.25;;
66342;SDS011;53144;51.524;5.080;2023-07-09T01:36:08;51.90;;;14.13;;
66342;SDS011;53144;51.524;5.080;2023-07-09T01:38:35;42.50;;;13.98;;
66342;SDS011;53144;51.524;5.080;2023-07-09T01:41:00;44.38;;;12.85;;
66342;SDS011;53144;51.524;5.080;2023-07-09T01:43:27;43.95;;;13.48;;
66342;SDS011;53144;51.524;5.080;2023-07-09T01:45:53;46.42;;;13.57;;
66342;SDS011;53144;51.524;5.080;2023-07-09T01:48:22;33.33;;;13.48;;
66342;SDS011;53144;51.524;5.080;2023-07-09T01:50:49;32.53;;;11.55;;
66342;SDS011;53144;51.524;5.080;2023-07-09T01:53:16;37.20;;;12.13;;
66342;SDS011;53144;51.524;5.080;2023-07-09T01:55:44;44.60;;;12.35;;
66342;SDS011;53144;51.524;5.080;2023-07-09T01:58:09;31.30;;;11.45;;
66342;SDS011;53144;51.524;5.080;2023-07-09T02:00:35;30.23;;;12.00;;
66342;SDS011;53144;51.524;5.080;2023-07-09T02:03:02;30.85;;;11.73;;
66342;SDS011;53144;51.524;5.080;2023-07-09T02:05:30;34.22;;;12.27;;
66342;SDS011;53144;51.524;5.080;2023-07-09T02:07:56;35.92;;;11.27;;
66342;SDS011;53144;51.524;5.080;2023-07-09T02:10:22;38.25;;;13.00;;
66342;SDS011;53144;51.524;5.080;2023-07-09T02:12:47;23.00;;;11.48;;
66342;SDS011;53144;51.524;5.080;2023-07-09T02:15:13;30.08;;;11.73;;
66342;SDS011;53144;51.524;5.080;2023-07-09T02:17:40;22.20;;;9.40;;
66342;SDS011;53144;51.524;5.080;2023-07-09T02:20:05;23.35;;;10.73;;
66342;SDS011;53144;51.524;5.080;2023-07-09T02:22:32;22.05;;;10.40;;
66342;SDS011;53144;51.524;5.080;2023-07-09T02:24:59;21.65;;;9.32;;
66342;SDS011;53144;51.524;5.080;2023-07-09T02:27:25;14.80;;;10.15;;
66342;SDS011;53144;51.524;5.080;2023-07-09T02:29:51;16.88;;;10.68;;
66342;SDS011;53144;51.524;5.080;2023-07-09T02:32:17;11.75;;;9.55;;
66342;SDS011;53144;51.524;5.080;2023-07-09T02:34:45;21.75;;;11.05;;
66342;SDS011;53144;51.524;5.080;2023-07-09T02:37:14;13.15;;;10.02;;
66342;SDS011;53144;51.524;5.080;2023-07-09T02:39:41;20.83;;;11.40;;
66342;SDS011;53144;51.524;5.080;2023-07-09T02:42:09;19.35;;;10.73;;
66342;SDS011;53144;51.524;5.080;2023-07-09T02:44:35;22.75;;;11.40;;
66342;SDS011;53144;51.524;5.080;2023-07-09T02:47:32;21.15;;;10.77;;
66342;SDS011;53144;51.524;5.080;2023-07-09T02:49:58;20.50;;;10.52;;
66342;SDS011;53144;51.524;5.080;2023-07-09T02:52:23;14.45;;;11.00;;
66342;SDS011;53144;51.524;5.080;2023-07-09T02:54:49;17.65;;;10.80;;
66342;SDS011;53144;51.524;5.080;2023-07-09T02:57:14;20.00;;;10.15;;
66342;SDS011;53144;51.524;5.080;2023-07-09T02:59:40;20.98;;;10.80;;
66342;SDS011;53144;51.524;5.080;2023-07-09T03:02:05;23.38;;;11.40;;
66342;SDS011;53144;51.524;5.080;2023-07-09T03:04:31;25.00;;;10.80;;
66342;SDS011;53144;51.524;5.080;2023-07-09T03:06:56;25.40;;;11.60;;
66342;SDS011;53144;51.524;5.080;2023-07-09T03:09:22;21.58;;;10.40;;
66342;SDS011;53144;51.524;5.080;2023-07-09T03:11:48;18.17;;;10.45;;
66342;SDS011;53144;51.524;5.080;2023-07-09T03:14:13;18.95;;;10.68;;
66342;SDS011;53144;51.524;5.080;2023-07-09T03:16:39;17.67;;;9.73;;
66342;SDS011;53144;51.524;5.080;2023-07-09T03:19:05;18.50;;;10.10;;
66342;SDS011;53144;51.524;5.080;2023-07-09T03:21:31;15.20;;;10.43;;
66342;SDS011;53144;51.524;5.080;2023-07-09T03:23:57;21.35;;;10.73;;
66342;SDS011;53144;51.524;5.080;2023-07-09T03:26:22;16.50;;;11.07;;
66342;SDS011;53144;51.524;5.080;2023-07-09T03:28:49;18.88;;;11.25;;
66342;SDS011;53144;51.524;5.080;2023-07-09T03:31:14;19.80;;;11.20;;
66342;SDS011;53144;51.524;5.080;2023-07-09T03:33:40;19.13;;;11.00;;
66342;SDS011;53144;51.524;5.080;2023-07-09T03:36:05;25.17;;;11.77;;
66342;SDS011;53144;51.524;5.080;2023-07-09T03:38:31;16.98;;;11.73;;
66342;SDS011;53144;51.524;5.080;2023-07-09T03:40:57;25.00;;;12.48;;
66342;SDS011;53144;51.524;5.080;2023-07-09T03:43:22;25.05;;;11.77;;
66342;SDS011;53144;51.524;5.080;2023-07-09T03:45:48;28.60;;;12.10;;
66342;SDS011;53144;51.524;5.080;2023-07-09T03:48:15;18.23;;;12.50;;
66342;SDS011;53144;51.524;5.080;2023-07-09T03:50:43;29.25;;;13.77;;
66342;SDS011;53144;51.524;5.080;2023-07-09T03:53:10;30.38;;;13.50;;
66342;SDS011;53144;51.524;5.080;2023-07-09T03:55:35;41.65;;;14.05;;
66342;SDS011;53144;51.524;5.080;2023-07-09T03:58:00;49.05;;;14.95;;
66342;SDS011;53144;51.524;5.080;2023-07-09T04:00:29;32.33;;;13.77;;
66342;SDS011;53144;51.524;5.080;2023-07-09T04:02:55;35.08;;;13.85;;
66342;SDS011;53144;51.524;5.080;2023-07-09T04:05:22;38.85;;;14.20;;
66342;SDS011;53144;51.524;5.080;2023-07-09T04:07:48;44.45;;;15.43;;
66342;SDS011;53144;51.524;5.080;2023-07-09T04:10:13;38.83;;;15.13;;
66342;SDS011;53144;51.524;5.080;2023-07-09T04:12:39;47.78;;;14.95;;
66342;SDS011;53144;51.524;5.080;2023-07-09T04:15:05;43.55;;;14.95;;
66342;SDS011;53144;51.524;5.080;2023-07-09T04:17:31;45.70;;;15.90;;
66342;SDS011;53144;51.524;5.080;2023-07-09T04:19:57;50.65;;;16.08;;
66342;SDS011;53144;51.524;5.080;2023-07-09T04:22:22;49.53;;;16.75;;
66342;SDS011;53144;51.524;5.080;2023-07-09T04:24:48;42.30;;;15.27;;
66342;SDS011;53144;51.524;5.080;2023-07-09T04:27:14;39.17;;;16.30;;
66342;SDS011;53144;51.524;5.080;2023-07-09T04:29:40;29.25;;;14.63;;
66342;SDS011;53144;51.524;5.080;2023-07-09T04:32:07;38.72;;;15.55;;
66342;SDS011;53144;51.524;5.080;2023-07-09T04:34:36;36.33;;;15.82;;
66342;SDS011;53144;51.524;5.080;2023-07-09T04:37:04;38.42;;;16.20;;
66342;SDS011;53144;51.524;5.080;2023-07-09T04:39:31;36.35;;;16.27;;
66342;SDS011;53144;51.524;5.080;2023-07-09T04:41:56;34.50;;;15.38;;
66342;SDS011;53144;51.524;5.080;2023-07-09T04:44:22;27.95;;;15.82;;
66342;SDS011;53144;51.524;5.080;2023-07-09T04:46:47;31.35;;;16.75;;
66342;SDS011;53144;51.524;5.080;2023-07-09T04:49:14;33.88;;;17.30;;
66342;SDS011;53144;51.524;5.080;2023-07-09T04:51:39;30.42;;;16.80;;
66342;SDS011;53144;51.524;5.080;2023-07-09T04:54:05;39.13;;;17.02;;
66342;SDS011;53144;51.524;5.080;2023-07-09T04:56:30;33.97;;;17.60;;
66342;SDS011;53144;51.524;5.080;2023-07-09T04:58:56;34.28;;;17.23;;
66342;SDS011;53144;51.524;5.080;2023-07-09T05:01:21;30.60;;;17.00;;
66342;SDS011;53144;51.524;5.080;2023-07-09T05:03:47;36.38;;;17.77;;
66342;SDS011;53144;51.524;5.080;2023-07-09T05:06:13;29.90;;;17.10;;
66342;SDS011;53144;51.524;5.080;2023-07-09T05:08:38;27.45;;;17.60;;
66342;SDS011;53144;51.524;5.080;2023-07-09T05:11:04;30.73;;;17.60;;
66342;SDS011;53144;51.524;5.080;2023-07-09T05:13:29;28.35;;;17.02;;
66342;SDS011;53144;51.524;5.080;2023-07-09T05:15:55;29.40;;;17.38;;
66342;SDS011;53144;51.524;5.080;2023-07-09T05:18:20;31.23;;;18.00;;
66342;SDS011;53144;51.524;5.080;2023-07-09T05:20:46;29.33;;;18.02;;
66342;SDS011;53144;51.524;5.080;2023-07-09T05:23:12;27.58;;;17.83;;
66342;SDS011;53144;51.524;5.080;2023-07-09T05:25:37;28.23;;;18.30;;
66342;SDS011;53144;51.524;5.080;2023-07-09T05:28:03;27.27;;;16.90;;
66342;SDS011;53144;51.524;5.080;2023-07-09T05:30:29;26.60;;;18.17;;
66342;SDS011;53144;51.524;5.080;2023-07-09T05:32:55;31.60;;;17.10;;
66342;SDS011;53144;51.524;5.080;2023-07-09T05:35:23;23.75;;;17.83;;
66342;SDS011;53144;51.524;5.080;2023-07-09T05:37:50;25.85;;;19.08;;
66342;SDS011;53144;51.524;5.080;2023-07-09T05:40:16;24.67;;;16.92;;
66342;SDS011;53144;51.524;5.080;2023-07-09T05:42:41;28.23;;;18.05;;
66342;SDS011;53144;51.524;5.080;2023-07-09T05:45:07;23.42;;;17.63;;
66342;SDS011;53144;51.524;5.080;2023-07-09T05:47:32;21.08;;;17.15;;
66342;SDS011;53144;51.524;5.080;2023-07-09T05:49:58;21.67;;;16.98;;
66342;SDS011;53144;51.524;5.080;2023-07-09T05:52:23;19.20;;;16.35;;
66342;SDS011;53144;51.524;5.080;2023-07-09T05:54:49;21.80;;;16.27;;
66342;SDS011;53144;51.524;5.080;2023-07-09T05:57:16;21.63;;;16.40;;
66342;SDS011;53144;51.524;5.080;2023-07-09T05:59:41;21.23;;;16.65;;
66342;SDS011;53144;51.524;5.080;2023-07-09T06:02:10;21.98;;;15.13;;
66342;SDS011;53144;51.524;5.080;2023-07-09T06:04:36;22.10;;;15.93;;
66342;SDS011;53144;51.524;5.080;2023-07-09T06:07:02;21.73;;;16.23;;
66342;SDS011;53144;51.524;5.080;2023-07-09T06:09:28;20.50;;;15.88;;
66342;SDS011;53144;51.524;5.080;2023-07-09T06:11:54;22.25;;;16.55;;
66342;SDS011;53144;51.524;5.080;2023-07-09T06:14:19;19.90;;;15.65;;
66342;SDS011;53144;51.524;5.080;2023-07-09T06:16:45;20.10;;;14.73;;
66342;SDS011;53144;51.524;5.080;2023-07-09T06:19:10;21.88;;;15.50;;
66342;SDS011;53144;51.524;5.080;2023-07-09T06:21:36;20.48;;;14.93;;
66342;SDS011;53144;51.524;5.080;2023-07-09T06:24:01;21.75;;;14.80;;
66342;SDS011;53144;51.524;5.080;2023-07-09T06:26:26;18.98;;;14.00;;
66342;SDS011;53144;51.524;5.080;2023-07-09T06:28:52;19.73;;;14.50;;
66342;SDS011;53144;51.524;5.080;2023-07-09T06:31:17;19.85;;;13.38;;
66342;SDS011;53144;51.524;5.080;2023-07-09T06:33:45;21.65;;;13.60;;
66342;SDS011;53144;51.524;5.080;2023-07-09T06:36:11;16.23;;;13.88;;
66342;SDS011;53144;51.524;5.080;2023-07-09T06:38:37;20.13;;;14.68;;
66342;SDS011;53144;51.524;5.080;2023-07-09T06:41:02;18.83;;;13.38;;
66342;SDS011;53144;51.524;5.080;2023-07-09T06:43:28;22.08;;;13.52;;
66342;SDS011;53144;51.524;5.080;2023-07-09T06:45:54;17.42;;;13.60;;
66342;SDS011;53144;51.524;5.080;2023-07-09T06:48:22;18.73;;;13.63;;
66342;SDS011;53144;51.524;5.080;2023-07-09T06:50:47;21.48;;;13.27;;
66342;SDS011;53144;51.524;5.080;2023-07-09T06:53:13;18.00;;;12.95;;
66342;SDS011;53144;51.524;5.080;2023-07-09T06:55:38;15.73;;;12.30;;
66342;SDS011;53144;51.524;5.080;2023-07-09T06:58:04;17.95;;;11.98;;
66342;SDS011;53144;51.524;5.080;2023-07-09T07:00:29;17.67;;;11.23;;
66342;SDS011;53144;51.524;5.080;2023-07-09T07:02:55;14.18;;;11.18;;
66342;SDS011;53144;51.524;5.080;2023-07-09T07:05:20;19.67;;;11.07;;
66342;SDS011;53144;51.524;5.080;2023-07-09T07:07:46;15.27;;;11.00;;
66342;SDS011;53144;51.524;5.080;2023-07-09T07:10:11;12.05;;;9.48;;
66342;SDS011;53144;51.524;5.080;2023-07-09T07:12:41;13.32;;;9.13;;
66342;SDS011;53144;51.524;5.080;2023-07-09T07:15:12;14.00;;;8.10;;
66342;SDS011;53144;51.524;5.080;2023-07-09T07:17:44;16.25;;;9.23;;
66342;SDS011;53144;51.524;5.080;2023-07-09T07:20:11;13.10;;;8.52;;
66342;SDS011;53144;51.524;5.080;2023-07-09T07:22:38;12.55;;;8.30;;
66342;SDS011;53144;51.524;5.080;2023-07-09T07:25:05;10.80;;;8.15;;
66342;SDS011;53144;51.524;5.080;2023-07-09T07:27:32;15.00;;;8.60;;
66342;SDS011;53144;51.524;5.080;2023-07-09T07:29:58;11.50;;;7.93;;
66342;SDS011;53144;51.524;5.080;2023-07-09T07:32:24;15.90;;;7.68;;
66342;SDS011;53144;51.524;5.080;2023-07-09T07:34:50;11.13;;;7.90;;
66342;SDS011;53144;51.524;5.080;2023-07-09T07:37:17;10.25;;;7.57;;
66342;SDS011;53144;51.524;5.080;2023-07-09T07:39:45;9.50;;;7.60;;
66342;SDS011;53144;51.524;5.080;2023-07-09T07:42:10;10.55;;;8.02;;
66342;SDS011;53144;51.524;5.080;2023-07-09T07:44:36;10.45;;;7.28;;
66342;SDS011;53144;51.524;5.080;2023-07-09T07:47:01;12.23;;;7.70;;
66342;SDS011;53144;51.524;5.080;2023-07-09T07:49:28;12.73;;;7.72;;
66342;SDS011;53144;51.524;5.080;2023-07-09T07:51:53;13.43;;;7.88;;
66342;SDS011;53144;51.524;5.080;2023-07-09T07:54:18;12.75;;;7.05;;
66342;SDS011;53144;51.524;5.080;2023-07-09T07:56:44;12.07;;;7.68;;
66342;SDS011;53144;51.524;5.080;2023-07-09T07:59:09;12.05;;;8.27;;
66342;SDS011;53144;51.524;5.080;2023-07-09T08:01:35;15.32;;;8.60;;
66342;SDS011;53144;51.524;5.080;2023-07-09T08:04:01;12.10;;;7.57;;
66342;SDS011;53144;51.524;5.080;2023-07-09T08:06:27;10.18;;;6.60;;
66342;SDS011;53144;51.524;5.080;2023-07-09T08:08:53;13.63;;;6.72;;
66342;SDS011;53144;51.524;5.080;2023-07-09T08:11:18;11.07;;;7.03;;
66342;SDS011;53144;51.524;5.080;2023-07-09T08:13:44;10.98;;;7.25;;
66342;SDS011;53144;51.524;5.080;2023-07-09T08:16:10;9.00;;;6.25;;
66342;SDS011;53144;51.524;5.080;2023-07-09T08:18:37;14.57;;;7.13;;
66342;SDS011;53144;51.524;5.080;2023-07-09T08:21:02;13.50;;;7.32;;
66342;SDS011;53144;51.524;5.080;2023-07-09T08:23:29;9.90;;;6.43;;
66342;SDS011;53144;51.524;5.080;2023-07-09T08:25:55;12.13;;;6.43;;
66342;SDS011;53144;51.524;5.080;2023-07-09T08:28:21;9.20;;;6.43;;
66342;SDS011;53144;51.524;5.080;2023-07-09T08:30:47;8.25;;;6.10;;
66342;SDS011;53144;51.524;5.080;2023-07-09T08:33:13;9.48;;;6.35;;
66342;SDS011;53144;51.524;5.080;2023-07-09T08:35:41;12.23;;;6.72;;
66342;SDS011;53144;51.524;5.080;2023-07-09T08:38:08;11.75;;;6.00;;
66342;SDS011;53144;51.524;5.080;2023-07-09T08:40:38;8.18;;;6.40;;
66342;SDS011;53144;51.524;5.080;2023-07-09T08:43:16;8.98;;;6.43;;
66342;SDS011;53144;51.524;5.080;2023-07-09T08:48:41;11.45;;;6.68;;
66342;SDS011;53144;51.524;5.080;2023-07-09T08:51:15;9.95;;;6.40;;
66342;SDS011;53144;51.524;5.080;2023-07-09T08:54:01;10.93;;;6.07;;
66342;SDS011;53144;51.524;5.080;2023-07-09T08:56:28;9.30;;;6.40;;
66342;SDS011;53144;51.524;5.080;2023-07-09T08:58:56;10.77;;;6.30;;
66342;SDS011;53144;51.524;5.080;2023-07-09T09:01:30;14.80;;;6.35;;
66342;SDS011;53144;51.524;5.080;2023-07-09T09:04:03;7.78;;;5.75;;
66342;SDS011;53144;51.524;5.080;2023-07-09T09:06:44;12.10;;;5.68;;
66342;SDS011;53144;51.524;5.080;2023-07-09T09:11:49;11.35;;;6.20;;
66342;SDS011;53144;51.524;5.080;2023-07-09T09:14:30;8.70;;;4.97;;
66342;SDS011;53144;51.524;5.080;2023-07-09T09:16:59;7.72;;;5.28;;
66342;SDS011;53144;51.524;5.080;2023-07-09T09:19:27;8.95;;;5.10;;
66342;SDS011;53144;51.524;5.080;2023-07-09T09:22:00;10.98;;;5.40;;
66342;SDS011;53144;51.524;5.080;2023-07-09T09:24:33;8.00;;;4.90;;
66342;SDS011;53144;51.524;5.080;2023-07-09T09:27:01;11.63;;;5.18;;
66342;SDS011;53144;51.524;5.080;2023-07-09T09:29:27;10.13;;;5.60;;
66342;SDS011;53144;51.524;5.080;2023-07-09T09:31:54;8.35;;;5.32;;
66342;SDS011;53144;51.524;5.080;2023-07-09T09:34:25;8.98;;;4.93;;
66342;SDS011;53144;51.524;5.080;2023-07-09T09:36:53;11.02;;;5.18;;
66342;SDS011;53144;51.524;5.080;2023-07-09T09:39:20;11.45;;;5.47;;
66342;SDS011;53144;51.524;5.080;2023-07-09T09:41:47;9.80;;;5.75;;
66342;SDS011;53144;51.524;5.080;2023-07-09T09:44:20;8.57;;;5.80;;
66342;SDS011;53144;51.524;5.080;2023-07-09T09:46:49;6.82;;;5.28;;
66342;SDS011;53144;51.524;5.080;2023-07-09T09:49:18;9.30;;;5.22;;
66342;SDS011;53144;51.524;5.080;2023-07-09T09:51:45;7.72;;;5.15;;
66342;SDS011;53144;51.524;5.080;2023-07-09T09:54:16;7.28;;;5.50;;
66342;SDS011;53144;51.524;5.080;2023-07-09T09:59:30;11.63;;;5.45;;
66342;SDS011;53144;51.524;5.080;2023-07-09T10:01:58;9.27;;;5.25;;
66342;SDS011;53144;51.524;5.080;2023-07-09T10:04:36;10.82;;;5.43;;
66342;SDS011;53144;51.524;5.080;2023-07-09T10:07:03;7.65;;;4.88;;
66342;SDS011;53144;51.524;5.080;2023-07-09T10:12:36;10.10;;;5.25;;
66342;SDS011;53144;51.524;5.080;2023-07-09T10:26:00;7.50;;;5.35;;
66342;SDS011;53144;51.524;5.080;2023-07-09T10:28:43;13.13;;;5.22;;
66342;SDS011;53144;51.524;5.080;2023-07-09T10:39:38;10.00;;;5.20;;
66342;SDS011;53144;51.524;5.080;2023-07-09T10:42:07;8.98;;;5.30;;
66342;SDS011;53144;51.524;5.080;2023-07-09T10:44:50;12.55;;;5.22;;
66342;SDS011;53144;51.524;5.080;2023-07-09T10:47:31;9.43;;;4.72;;
66342;SDS011;53144;51.524;5.080;2023-07-09T10:50:01;7.10;;;5.17;;
66342;SDS011;53144;51.524;5.080;2023-07-09T10:52:34;7.72;;;4.82;;
66342;SDS011;53144;51.524;5.080;2023-07-09T10:55:09;10.18;;;5.13;;
66342;SDS011;53144;51.524;5.080;2023-07-09T11:00:38;13.68;;;5.30;;
66342;SDS011;53144;51.524;5.080;2023-07-09T11:03:11;10.82;;;5.38;;
66342;SDS011;53144;51.524;5.080;2023-07-09T11:05:41;10.48;;;5.60;;
66342;SDS011;53144;51.524;5.080;2023-07-09T11:08:09;7.50;;;5.25;;
66342;SDS011;53144;51.524;5.080;2023-07-09T11:10:50;11.25;;;5.82;;
66342;SDS011;53144;51.524;5.080;2023-07-09T11:15:49;13.15;;;5.82;;
66342;SDS011;53144;51.524;5.080;2023-07-09T11:18:26;8.05;;;5.75;;
66342;SDS011;53144;51.524;5.080;2023-07-09T11:21:04;9.75;;;5.80;;
66342;SDS011;53144;51.524;5.080;2023-07-09T11:23:42;10.73;;;5.68;;
66342;SDS011;53144;51.524;5.080;2023-07-09T11:26:12;10.57;;;5.68;;
66342;SDS011;53144;51.524;5.080;2023-07-09T11:28:50;11.50;;;6.60;;
66342;SDS011;53144;51.524;5.080;2023-07-09T11:31:20;10.55;;;6.60;;
66342;SDS011;53144;51.524;5.080;2023-07-09T11:33:48;9.48;;;6.65;;
66342;SDS011;53144;51.524;5.080;2023-07-09T11:36:24;13.30;;;7.78;;
66342;SDS011;53144;51.524;5.080;2023-07-09T11:38:51;12.15;;;7.72;;
66342;SDS011;53144;51.524;5.080;2023-07-09T11:41:28;15.55;;;7.97;;
66342;SDS011;53144;51.524;5.080;2023-07-09T11:46:33;11.85;;;10.00;;
66342;SDS011;53144;51.524;5.080;2023-07-09T11:49:01;17.80;;;12.15;;
66342;SDS011;53144;51.524;5.080;2023-07-09T11:51:45;20.00;;;15.98;;
66342;SDS011;53144;51.524;5.080;2023-07-09T11:54:14;18.42;;;13.57;;
66342;SDS011;53144;51.524;5.080;2023-07-09T11:56:40;18.17;;;13.30;;
66342;SDS011;53144;51.524;5.080;2023-07-09T11:59:05;21.45;;;12.10;;
66342;SDS011;53144;51.524;5.080;2023-07-09T12:01:40;12.38;;;10.95;;
66342;SDS011;53144;51.524;5.080;2023-07-09T12:04:13;16.65;;;10.63;;
66342;SDS011;53144;51.524;5.080;2023-07-09T12:06:40;14.98;;;11.32;;
66342;SDS011;53144;51.524;5.080;2023-07-09T12:09:06;14.95;;;9.98;;
66342;SDS011;53144;51.524;5.080;2023-07-09T12:11:42;17.38;;;11.15;;
66342;SDS011;53144;51.524;5.080;2023-07-09T12:14:27;13.50;;;11.27;;
66342;SDS011;53144;51.524;5.080;2023-07-09T12:16:53;13.25;;;10.70;;
66342;SDS011;53144;51.524;5.080;2023-07-09T12:19:20;14.32;;;10.50;;
66342;SDS011;53144;51.524;5.080;2023-07-09T12:21:56;14.35;;;12.43;;
66342;SDS011;53144;51.524;5.080;2023-07-09T12:24:24;14.10;;;12.38;;
66342;SDS011;53144;51.524;5.080;2023-07-09T12:26:52;16.85;;;11.93;;
66342;SDS011;53144;51.524;5.080;2023-07-09T12:29:18;17.98;;;12.98;;
66342;SDS011;53144;51.524;5.080;2023-07-09T12:31:43;16.25;;;12.25;;
66342;SDS011;53144;51.524;5.080;2023-07-09T12:34:10;14.75;;;11.48;;
66342;SDS011;53144;51.524;5.080;2023-07-09T12:36:38;11.30;;;9.20;;
66342;SDS011;53144;51.524;5.080;2023-07-09T12:39:08;12.60;;;9.73;;
66342;SDS011;53144;51.524;5.080;2023-07-09T12:41:38;17.02;;;9.13;;
66342;SDS011;53144;51.524;5.080;2023-07-09T12:44:05;10.10;;;7.70;;
66342;SDS011;53144;51.524;5.080;2023-07-09T12:46:45;13.02;;;8.25;;
66342;SDS011;53144;51.524;5.080;2023-07-09T12:49:22;13.52;;;7.70;;
66342;SDS011;53144;51.524;5.080;2023-07-09T12:51:55;12.57;;;7.70;;
66342;SDS011;53144;51.524;5.080;2023-07-09T12:54:21;9.60;;;7.38;;
66342;SDS011;53144;51.524;5.080;2023-07-09T12:56:50;10.70;;;7.53;;
66342;SDS011;53144;51.524;5.080;2023-07-09T13:01:50;9.05;;;5.97;;
66342;SDS011;53144;51.524;5.080;2023-07-09T13:04:39;9.90;;;5.65;;
66342;SDS011;53144;51.524;5.080;2023-07-09T13:07:05;12.65;;;5.38;;
66342;SDS011;53144;51.524;5.080;2023-07-09T13:09:53;6.53;;;4.70;;
66342;SDS011;53144;51.524;5.080;2023-07-09T13:12:20;6.70;;;4.88;;
66342;SDS011;53144;51.524;5.080;2023-07-09T13:14:52;5.55;;;4.25;;
66342;SDS011;53144;51.524;5.080;2023-07-09T13:17:19;6.65;;;4.63;;
66342;SDS011;53144;51.524;5.080;2023-07-09T13:19:44;9.05;;;4.70;;
66342;SDS011;53144;51.524;5.080;2023-07-09T13:22:19;9.10;;;4.63;;
66342;SDS011;53144;51.524;5.080;2023-07-09T13:24:45;8.50;;;4.80;;
66342;SDS011;53144;51.524;5.080;2023-07-09T13:27:11;6.43;;;3.97;;
66342;SDS011;53144;51.524;5.080;2023-07-09T13:29:39;8.52;;;4.22;;
66342;SDS011;53144;51.524;5.080;2023-07-09T13:32:08;11.70;;;4.10;;
66342;SDS011;53144;51.524;5.080;2023-07-09T13:34:35;8.77;;;4.20;;
66342;SDS011;53144;51.524;5.080;2023-07-09T13:37:00;11.50;;;4.35;;
66342;SDS011;53144;51.524;5.080;2023-07-09T13:39:26;7.85;;;4.30;;
66342;SDS011;53144;51.524;5.080;2023-07-09T13:41:51;8.18;;;3.85;;
66342;SDS011;53144;51.524;5.080;2023-07-09T13:44:22;7.75;;;3.97;;
66342;SDS011;53144;51.524;5.080;2023-07-09T13:46:50;7.97;;;4.38;;
66342;SDS011;53144;51.524;5.080;2023-07-09T13:49:17;9.23;;;4.50;;
66342;SDS011;53144;51.524;5.080;2023-07-09T13:51:45;15.35;;;5.47;;
66342;SDS011;53144;51.524;5.080;2023-07-09T13:54:17;27.13;;;7.65;;
66342;SDS011;53144;51.524;5.080;2023-07-09T13:56:47;16.95;;;7.88;;
66342;SDS011;53144;51.524;5.080;2023-07-09T13:59:24;17.23;;;8.10;;
66342;SDS011;53144;51.524;5.080;2023-07-09T14:01:50;16.90;;;7.82;;
66342;SDS011;53144;51.524;5.080;2023-07-09T14:04:18;15.30;;;7.22;;
66342;SDS011;53144;51.524;5.080;2023-07-09T14:06:45;13.65;;;7.40;;
66342;SDS011;53144;51.524;5.080;2023-07-09T14:09:13;12.68;;;6.38;;
66342;SDS011;53144;51.524;5.080;2023-07-09T14:11:41;9.95;;;6.00;;
66342;SDS011;53144;51.524;5.080;2023-07-09T14:14:23;12.68;;;5.85;;
66342;SDS011;53144;51.524;5.080;2023-07-09T14:16:52;11.00;;;5.88;;
66342;SDS011;53144;51.524;5.080;2023-07-09T14:19:21;7.97;;;5.55;;
66342;SDS011;53144;51.524;5.080;2023-07-09T14:21:48;8.98;;;5.28;;
66342;SDS011;53144;51.524;5.080;2023-07-09T14:26:44;10.30;;;4.80;;
66342;SDS011;53144;51.524;5.080;2023-07-09T14:29:11;7.68;;;4.72;;
66342;SDS011;53144;51.524;5.080;2023-07-09T14:31:38;7.47;;;4.22;;
66342;SDS011;53144;51.524;5.080;2023-07-09T14:36:52;7.72;;;4.75;;
66342;SDS011;53144;51.524;5.080;2023-07-09T14:39:19;9.82;;;5.00;;
66342;SDS011;53144;51.524;5.080;2023-07-09T14:41:45;10.00;;;4.93;;
66342;SDS011;53144;51.524;5.080;2023-07-09T14:44:19;8.80;;;4.35;;
66342;SDS011;53144;51.524;5.080;2023-07-09T14:46:56;8.90;;;4.82;;
66342;SDS011;53144;51.524;5.080;2023-07-09T14:49:23;7.82;;;4.65;;
66342;SDS011;53144;51.524;5.080;2023-07-09T14:51:50;9.50;;;4.35;;
66342;SDS011;53144;51.524;5.080;2023-07-09T14:54:21;8.43;;;4.88;;
66342;SDS011;53144;51.524;5.080;2023-07-09T14:56:49;7.38;;;3.95;;
66342;SDS011;53144;51.524;5.080;2023-07-09T14:59:15;7.03;;;4.68;;
66342;SDS011;53144;51.524;5.080;2023-07-09T15:01:40;8.10;;;4.50;;
66342;SDS011;53144;51.524;5.080;2023-07-09T15:06:47;7.38;;;4.57;;
66342;SDS011;53144;51.524;5.080;2023-07-09T15:09:13;7.30;;;4.32;;
66342;SDS011;53144;51.524;5.080;2023-07-09T15:11:39;7.70;;;4.20;;
66342;SDS011;53144;51.524;5.080;2023-07-09T15:14:11;8.10;;;4.55;;
66342;SDS011;53144;51.524;5.080;2023-07-09T15:16:37;7.47;;;4.80;;
66342;SDS011;53144;51.524;5.080;2023-07-09T15:19:13;9.00;;;4.78;;
66342;SDS011;53144;51.524;5.080;2023-07-09T15:21:39;7.63;;;5.22;;
66342;SDS011;53144;51.524;5.080;2023-07-09T15:24:05;12.18;;;5.10;;
66342;SDS011;53144;51.524;5.080;2023-07-09T15:26:39;9.20;;;5.13;;
66342;SDS011;53144;51.524;5.080;2023-07-09T15:29:08;11.00;;;4.82;;